sensor_id;sensor_type;location;lat;lon;timestamp;temperature;humidity
74513;DHT22;62992;52.052;8.550;2023-04-25T00:00:54;7.00;99.90
74513;DHT22;62992;52.052;8.550;2023-04-25T00:03:38;6.90;99.90
74513;DHT22;62992;52.052;8.550;2023-04-25T00:06:23;7.00;99.90
74513;DHT22;62992;52.052;8.550;2023-04-25T00:09:10;7.00;99.90
74513;DHT22;62992;52.052;8.550;2023-04-25T00:11:55;6.90;99.90
74513;DHT22;62992;52.052;8.550;2023-04-25T00:14:39;6.90;99.90
74513;DHT22;62992;52.052;8.550;2023-04-25T00:17:23;6.90;99.90
74513;DHT22;62992;52.052;8.550;2023-04-25T00:20:11;6.90;99.90
74513;DHT22;62992;52.052;8.550;2023-04-25T00:22:55;6.90;99.90
74513;DHT22;62992;52.052;8.550;2023-04-25T00:25:39;6.90;99.90
74513;DHT22;62992;52.052;8.550;2023-04-25T00:28:23;6.90;99.90
74513;DHT22;62992;52.052;8.550;2023-04-25T00:31:08;6.80;99.90
74513;DHT22;62992;52.052;8.550;2023-04-25T00:33:52;6.80;99.90
74513;DHT22;62992;52.052;8.550;2023-04-25T00:36:37;6.80;99.90
74513;DHT22;62992;52.052;8.550;2023-04-25T00:39:22;6.80;99.90
74513;DHT22;62992;52.052;8.550;2023-04-25T00:42:07;6.80;99.90
74513;DHT22;62992;52.052;8.550;2023-04-25T00:44:52;6.80;99.90
74513;DHT22;62992;52.052;8.550;2023-04-25T00:47:37;6.80;99.90
74513;DHT22;62992;52.052;8.550;2023-04-25T00:50:22;6.80;99.90
74513;DHT22;62992;52.052;8.550;2023-04-25T00:53:06;6.80;99.90
74513;DHT22;62992;52.052;8.550;2023-04-25T00:55:51;6.70;99.90
74513;DHT22;62992;52.052;8.550;2023-04-25T00:58:36;6.70;99.90
74513;DHT22;62992;52.052;8.550;2023-04-25T01:01:21;6.70;99.90
74513;DHT22;62992;52.052;8.550;2023-04-25T01:04:05;6.70;99.90
74513;DHT22;62992;52.052;8.550;2023-04-25T01:06:49;6.70;99.90
74513;DHT22;62992;52.052;8.550;2023-04-25T01:09:34;6.70;99.90
74513;DHT22;62992;52.052;8.550;2023-04-25T01:12:18;6.70;99.90
74513;DHT22;62992;52.052;8.550;2023-04-25T01:15:03;6.70;99.90
74513;DHT22;62992;52.052;8.550;2023-04-25T01:17:48;6.70;99.90
74513;DHT22;62992;52.052;8.550;2023-04-25T01:20:33;6.70;99.90
74513;DHT22;62992;52.052;8.550;2023-04-25T01:23:18;6.70;99.90
74513;DHT22;62992;52.052;8.550;2023-04-25T01:26:03;6.70;99.90
74513;DHT22;62992;52.052;8.550;2023-04-25T01:28:48;6.70;99.90
74513;DHT22;62992;52.052;8.550;2023-04-25T01:31:33;6.70;99.90
74513;DHT22;62992;52.052;8.550;2023-04-25T01:34:18;6.80;99.90
74513;DHT22;62992;52.052;8.550;2023-04-25T01:37:03;6.80;99.90
74513;DHT22;62992;52.052;8.550;2023-04-25T01:39:47;6.70;99.90
74513;DHT22;62992;52.052;8.550;2023-04-25T01:42:33;6.70;99.90
74513;DHT22;62992;52.052;8.550;2023-04-25T01:45:18;6.70;99.90
74513;DHT22;62992;52.052;8.550;2023-04-25T01:48:02;6.70;99.90
74513;DHT22;62992;52.052;8.550;2023-04-25T01:50:47;6.70;99.90
74513;DHT22;62992;52.052;8.550;2023-04-25T01:53:32;6.70;99.90
74513;DHT22;62992;52.052;8.550;2023-04-25T01:56:18;6.70;99.90
74513;DHT22;62992;52.052;8.550;2023-04-25T01:59:04;6.70;99.90
74513;DHT22;62992;52.052;8.550;2023-04-25T02:01:49;6.60;99.90
74513;DHT22;62992;52.052;8.550;2023-04-25T02:04:33;6.60;99.90
74513;DHT22;62992;52.052;8.550;2023-04-25T02:07:17;6.60;99.90
74513;DHT22;62992;52.052;8.550;2023-04-25T02:10:01;6.70;99.90
74513;DHT22;62992;52.052;8.550;2023-04-25T02:12:45;6.70;99.90
74513;DHT22;62992;52.052;8.550;2023-04-25T02:15:29;6.70;99.90
74513;DHT22;62992;52.052;8.550;2023-04-25T02:18:14;6.70;99.90
74513;DHT22;62992;52.052;8.550;2023-04-25T02:21:00;6.70;99.90
74513;DHT22;62992;52.052;8.550;2023-04-25T02:23:45;6.70;99.90
74513;DHT22;62992;52.052;8.550;2023-04-25T02:26:32;6.70;99.90
74513;DHT22;62992;52.052;8.550;2023-04-25T02:29:16;6.80;99.90
74513;DHT22;62992;52.052;8.550;2023-04-25T02:32:00;6.70;99.90
74513;DHT22;62992;52.052;8.550;2023-04-25T02:34:44;6.70;99.90
74513;DHT22;62992;52.052;8.550;2023-04-25T02:37:29;6.70;99.90
74513;DHT22;62992;52.052;8.550;2023-04-25T02:40:13;6.70;99.90
74513;DHT22;62992;52.052;8.550;2023-04-25T02:42:57;6.80;99.90
74513;DHT22;62992;52.052;8.550;2023-04-25T02:45:41;6.70;99.90
74513;DHT22;62992;52.052;8.550;2023-04-25T02:48:25;6.70;99.90
74513;DHT22;62992;52.052;8.550;2023-04-25T02:51:09;6.70;99.90
74513;DHT22;62992;52.052;8.550;2023-04-25T02:53:53;6.70;99.90
74513;DHT22;62992;52.052;8.550;2023-04-25T02:56:37;6.70;99.90
74513;DHT22;62992;52.052;8.550;2023-04-25T02:59:21;6.70;99.90
74513;DHT22;62992;52.052;8.550;2023-04-25T03:02:05;6.60;99.90
74513;DHT22;62992;52.052;8.550;2023-04-25T03:04:49;6.60;99.90
74513;DHT22;62992;52.052;8.550;2023-04-25T03:07:33;6.60;99.90
74513;DHT22;62992;52.052;8.550;2023-04-25T03:10:18;6.60;99.90
74513;DHT22;62992;52.052;8.550;2023-04-25T03:13:02;6.60;99.90
74513;DHT22;62992;52.052;8.550;2023-04-25T03:15:46;6.60;99.90
74513;DHT22;62992;52.052;8.550;2023-04-25T03:18:30;6.60;99.90
74513;DHT22;62992;52.052;8.550;2023-04-25T03:21:14;6.50;99.90
74513;DHT22;62992;52.052;8.550;2023-04-25T03:23:59;6.50;99.90
74513;DHT22;62992;52.052;8.550;2023-04-25T03:26:43;6.50;99.90
74513;DHT22;62992;52.052;8.550;2023-04-25T03:29:27;6.50;99.90
74513;DHT22;62992;52.052;8.550;2023-04-25T03:32:12;6.50;99.90
74513;DHT22;62992;52.052;8.550;2023-04-25T03:34:56;6.50;99.90
74513;DHT22;62992;52.052;8.550;2023-04-25T03:37:41;6.50;99.90
74513;DHT22;62992;52.052;8.550;2023-04-25T03:40:29;6.50;99.90
74513;DHT22;62992;52.052;8.550;2023-04-25T03:43:13;6.50;99.90
74513;DHT22;62992;52.052;8.550;2023-04-25T03:45:57;6.50;99.90
74513;DHT22;62992;52.052;8.550;2023-04-25T03:48:41;6.40;99.90
74513;DHT22;62992;52.052;8.550;2023-04-25T03:51:26;6.50;99.90
74513;DHT22;62992;52.052;8.550;2023-04-25T03:54:10;6.50;99.90
74513;DHT22;62992;52.052;8.550;2023-04-25T03:56:54;6.50;99.90
74513;DHT22;62992;52.052;8.550;2023-04-25T03:59:38;6.50;99.90
74513;DHT22;62992;52.052;8.550;2023-04-25T04:02:22;6.40;99.90
74513;DHT22;62992;52.052;8.550;2023-04-25T04:05:06;6.40;99.90
74513;DHT22;62992;52.052;8.550;2023-04-25T04:07:51;6.40;99.90
74513;DHT22;62992;52.052;8.550;2023-04-25T04:10:35;6.40;99.90
74513;DHT22;62992;52.052;8.550;2023-04-25T04:13:19;6.40;99.90
74513;DHT22;62992;52.052;8.550;2023-04-25T04:16:03;6.40;99.90
74513;DHT22;62992;52.052;8.550;2023-04-25T04:18:48;6.40;99.90
74513;DHT22;62992;52.052;8.550;2023-04-25T04:21:32;6.40;99.90
74513;DHT22;62992;52.052;8.550;2023-04-25T04:24:17;6.30;99.90
74513;DHT22;62992;52.052;8.550;2023-04-25T04:27:01;6.40;99.90
74513;DHT22;62992;52.052;8.550;2023-04-25T04:29:46;6.30;99.90
74513;DHT22;62992;52.052;8.550;2023-04-25T04:32:30;6.30;99.90
74513;DHT22;62992;52.052;8.550;2023-04-25T04:35:16;6.30;99.90
74513;DHT22;62992;52.052;8.550;2023-04-25T04:38:00;6.30;99.90
74513;DHT22;62992;52.052;8.550;2023-04-25T04:40:44;6.20;99.90
74513;DHT22;62992;52.052;8.550;2023-04-25T04:43:28;6.20;99.90
74513;DHT22;62992;52.052;8.550;2023-04-25T04:46:13;6.30;99.90
74513;DHT22;62992;52.052;8.550;2023-04-25T04:48:58;6.30;99.90
74513;DHT22;62992;52.052;8.550;2023-04-25T04:51:42;6.30;99.90
74513;DHT22;62992;52.052;8.550;2023-04-25T04:54:28;6.30;99.90
74513;DHT22;62992;52.052;8.550;2023-04-25T04:57:12;6.30;99.90
74513;DHT22;62992;52.052;8.550;2023-04-25T04:59:56;6.30;99.90
74513;DHT22;62992;52.052;8.550;2023-04-25T05:02:40;6.30;99.90
74513;DHT22;62992;52.052;8.550;2023-04-25T05:05:25;6.30;99.90
74513;DHT22;62992;52.052;8.550;2023-04-25T05:08:09;6.30;99.90
74513;DHT22;62992;52.052;8.550;2023-04-25T05:10:53;6.40;99.90
74513;DHT22;62992;52.052;8.550;2023-04-25T05:13:37;6.40;99.90
74513;DHT22;62992;52.052;8.550;2023-04-25T05:16:21;6.40;99.90
74513;DHT22;62992;52.052;8.550;2023-04-25T05:19:05;6.40;99.90
74513;DHT22;62992;52.052;8.550;2023-04-25T05:21:50;6.40;99.90
74513;DHT22;62992;52.052;8.550;2023-04-25T05:24:34;6.40;99.90
74513;DHT22;62992;52.052;8.550;2023-04-25T05:27:19;6.40;99.90
74513;DHT22;62992;52.052;8.550;2023-04-25T05:30:04;6.50;99.90
74513;DHT22;62992;52.052;8.550;2023-04-25T05:32:49;6.50;99.90
74513;DHT22;62992;52.052;8.550;2023-04-25T05:35:34;6.50;99.90
74513;DHT22;62992;52.052;8.550;2023-04-25T05:38:18;6.50;99.90
74513;DHT22;62992;52.052;8.550;2023-04-25T05:41:02;6.60;99.90
74513;DHT22;62992;52.052;8.550;2023-04-25T05:43:46;6.70;99.90
74513;DHT22;62992;52.052;8.550;2023-04-25T05:46:33;6.70;99.90
74513;DHT22;62992;52.052;8.550;2023-04-25T05:49:17;6.80;99.90
74513;DHT22;62992;52.052;8.550;2023-04-25T05:52:01;6.80;99.90
74513;DHT22;62992;52.052;8.550;2023-04-25T05:54:45;6.80;99.90
74513;DHT22;62992;52.052;8.550;2023-04-25T05:57:29;6.80;99.90
74513;DHT22;62992;52.052;8.550;2023-04-25T06:00:14;6.80;99.90
74513;DHT22;62992;52.052;8.550;2023-04-25T06:02:59;6.80;99.90
74513;DHT22;62992;52.052;8.550;2023-04-25T06:05:44;6.90;99.90
74513;DHT22;62992;52.052;8.550;2023-04-25T06:08:28;6.90;99.90
74513;DHT22;62992;52.052;8.550;2023-04-25T06:11:12;6.90;99.90
74513;DHT22;62992;52.052;8.550;2023-04-25T06:13:56;7.00;99.90
74513;DHT22;62992;52.052;8.550;2023-04-25T06:16:40;6.90;99.90
74513;DHT22;62992;52.052;8.550;2023-04-25T06:19:24;6.90;99.90
74513;DHT22;62992;52.052;8.550;2023-04-25T06:22:08;6.90;99.90
74513;DHT22;62992;52.052;8.550;2023-04-25T06:24:52;7.10;99.90
74513;DHT22;62992;52.052;8.550;2023-04-25T06:27:36;7.10;99.90
74513;DHT22;62992;52.052;8.550;2023-04-25T06:30:20;7.10;99.90
74513;DHT22;62992;52.052;8.550;2023-04-25T06:33:08;7.10;99.90
74513;DHT22;62992;52.052;8.550;2023-04-25T06:35:52;7.10;99.90
74513;DHT22;62992;52.052;8.550;2023-04-25T06:38:36;7.20;99.90
74513;DHT22;62992;52.052;8.550;2023-04-25T06:41:20;7.20;99.90
74513;DHT22;62992;52.052;8.550;2023-04-25T06:44:04;7.20;99.90
74513;DHT22;62992;52.052;8.550;2023-04-25T06:46:48;7.30;99.90
74513;DHT22;62992;52.052;8.550;2023-04-25T06:49:33;7.30;99.90
74513;DHT22;62992;52.052;8.550;2023-04-25T06:52:17;7.40;99.90
74513;DHT22;62992;52.052;8.550;2023-04-25T06:55:01;7.40;99.90
74513;DHT22;62992;52.052;8.550;2023-04-25T06:57:46;7.50;99.90
74513;DHT22;62992;52.052;8.550;2023-04-25T07:00:31;7.50;99.90
74513;DHT22;62992;52.052;8.550;2023-04-25T07:03:16;7.50;99.90
74513;DHT22;62992;52.052;8.550;2023-04-25T07:06:00;7.60;99.90
74513;DHT22;62992;52.052;8.550;2023-04-25T07:08:44;7.80;99.90
74513;DHT22;62992;52.052;8.550;2023-04-25T07:11:28;7.90;99.90
74513;DHT22;62992;52.052;8.550;2023-04-25T07:14:12;7.90;99.90
74513;DHT22;62992;52.052;8.550;2023-04-25T07:16:56;8.00;99.90
74513;DHT22;62992;52.052;8.550;2023-04-25T07:19:40;8.20;99.90
74513;DHT22;62992;52.052;8.550;2023-04-25T07:22:24;8.80;99.90
74513;DHT22;62992;52.052;8.550;2023-04-25T07:25:10;8.80;99.90
74513;DHT22;62992;52.052;8.550;2023-04-25T07:27:54;8.90;99.90
74513;DHT22;62992;52.052;8.550;2023-04-25T07:30:38;9.80;99.90
74513;DHT22;62992;52.052;8.550;2023-04-25T07:33:22;9.70;99.90
74513;DHT22;62992;52.052;8.550;2023-04-25T07:36:07;8.90;99.90
74513;DHT22;62992;52.052;8.550;2023-04-25T07:38:51;8.80;99.90
74513;DHT22;62992;52.052;8.550;2023-04-25T07:41:35;8.70;99.90
74513;DHT22;62992;52.052;8.550;2023-04-25T07:44:19;8.60;99.90
74513;DHT22;62992;52.052;8.550;2023-04-25T07:47:07;8.50;99.90
74513;DHT22;62992;52.052;8.550;2023-04-25T07:49:51;8.40;99.90
74513;DHT22;62992;52.052;8.550;2023-04-25T07:52:36;8.40;99.90
74513;DHT22;62992;52.052;8.550;2023-04-25T07:55:20;8.50;99.90
74513;DHT22;62992;52.052;8.550;2023-04-25T07:58:04;8.60;99.90
74513;DHT22;62992;52.052;8.550;2023-04-25T08:00:48;9.60;99.90
74513;DHT22;62992;52.052;8.550;2023-04-25T08:03:34;10.40;99.90
74513;DHT22;62992;52.052;8.550;2023-04-25T08:06:18;11.40;99.90
74513;DHT22;62992;52.052;8.550;2023-04-25T08:09:02;11.60;99.90
74513;DHT22;62992;52.052;8.550;2023-04-25T08:11:47;11.30;99.90
74513;DHT22;62992;52.052;8.550;2023-04-25T08:14:31;10.70;99.90
74513;DHT22;62992;52.052;8.550;2023-04-25T08:17:19;10.60;99.90
74513;DHT22;62992;52.052;8.550;2023-04-25T08:20:04;10.30;99.90
74513;DHT22;62992;52.052;8.550;2023-04-25T08:22:49;10.00;99.90
74513;DHT22;62992;52.052;8.550;2023-04-25T08:25:33;9.70;99.90
74513;DHT22;62992;52.052;8.550;2023-04-25T08:28:17;9.80;99.90
74513;DHT22;62992;52.052;8.550;2023-04-25T08:31:02;9.80;99.90
74513;DHT22;62992;52.052;8.550;2023-04-25T08:33:46;9.80;99.90
74513;DHT22;62992;52.052;8.550;2023-04-25T08:36:30;9.70;99.90
74513;DHT22;62992;52.052;8.550;2023-04-25T08:39:15;9.70;99.90
74513;DHT22;62992;52.052;8.550;2023-04-25T08:42:01;10.00;99.90
74513;DHT22;62992;52.052;8.550;2023-04-25T08:44:48;10.60;99.90
74513;DHT22;62992;52.052;8.550;2023-04-25T08:47:33;10.90;99.90
74513;DHT22;62992;52.052;8.550;2023-04-25T08:50:22;10.80;99.90
74513;DHT22;62992;52.052;8.550;2023-04-25T08:53:09;12.00;99.90
74513;DHT22;62992;52.052;8.550;2023-04-25T08:55:59;12.80;99.90
74513;DHT22;62992;52.052;8.550;2023-04-25T08:58:48;12.20;99.90
74513;DHT22;62992;52.052;8.550;2023-04-25T09:01:36;11.40;99.90
74513;DHT22;62992;52.052;8.550;2023-04-25T09:04:21;11.20;99.90
74513;DHT22;62992;52.052;8.550;2023-04-25T09:07:05;11.70;99.90
74513;DHT22;62992;52.052;8.550;2023-04-25T09:09:49;12.00;99.90
74513;DHT22;62992;52.052;8.550;2023-04-25T09:12:34;12.50;99.90
74513;DHT22;62992;52.052;8.550;2023-04-25T09:15:19;13.80;99.00
74513;DHT22;62992;52.052;8.550;2023-04-25T09:18:03;15.10;97.20
74513;DHT22;62992;52.052;8.550;2023-04-25T09:20:47;16.00;94.90
74513;DHT22;62992;52.052;8.550;2023-04-25T09:23:39;15.60;94.10
74513;DHT22;62992;52.052;8.550;2023-04-25T09:26:25;13.60;96.50
74513;DHT22;62992;52.052;8.550;2023-04-25T09:29:09;12.50;98.10
74513;DHT22;62992;52.052;8.550;2023-04-25T09:32:15;12.80;99.90
74513;DHT22;62992;52.052;8.550;2023-04-25T09:34:59;13.50;96.70
74513;DHT22;62992;52.052;8.550;2023-04-25T09:37:45;12.20;98.00
74513;DHT22;62992;52.052;8.550;2023-04-25T09:40:30;11.30;99.90
74513;DHT22;62992;52.052;8.550;2023-04-25T09:43:21;10.60;99.90
74513;DHT22;62992;52.052;8.550;2023-04-25T09:46:10;10.30;99.90
74513;DHT22;62992;52.052;8.550;2023-04-25T09:48:55;9.60;99.90
74513;DHT22;62992;52.052;8.550;2023-04-25T09:51:39;9.30;99.90
74513;DHT22;62992;52.052;8.550;2023-04-25T09:54:24;9.20;99.90
74513;DHT22;62992;52.052;8.550;2023-04-25T09:59:55;9.30;99.90
74513;DHT22;62992;52.052;8.550;2023-04-25T10:02:42;9.30;99.90
74513;DHT22;62992;52.052;8.550;2023-04-25T10:05:29;9.40;99.90
74513;DHT22;62992;52.052;8.550;2023-04-25T10:08:14;9.30;99.90
74513;DHT22;62992;52.052;8.550;2023-04-25T10:11:01;9.20;99.90
74513;DHT22;62992;52.052;8.550;2023-04-25T10:13:46;8.90;99.90
74513;DHT22;62992;52.052;8.550;2023-04-25T10:16:32;8.90;99.90
74513;DHT22;62992;52.052;8.550;2023-04-25T10:19:17;8.70;99.90
74513;DHT22;62992;52.052;8.550;2023-04-25T10:22:13;8.70;99.90
74513;DHT22;62992;52.052;8.550;2023-04-25T10:25:00;8.90;99.90
74513;DHT22;62992;52.052;8.550;2023-04-25T10:27:51;9.00;99.90
74513;DHT22;62992;52.052;8.550;2023-04-25T10:30:35;9.00;99.90
74513;DHT22;62992;52.052;8.550;2023-04-25T10:33:36;9.20;99.90
74513;DHT22;62992;52.052;8.550;2023-04-25T10:36:22;9.30;99.90
74513;DHT22;62992;52.052;8.550;2023-04-25T10:39:07;9.50;99.90
74513;DHT22;62992;52.052;8.550;2023-04-25T10:41:53;9.70;99.90
74513;DHT22;62992;52.052;8.550;2023-04-25T10:44:39;10.00;99.90
74513;DHT22;62992;52.052;8.550;2023-04-25T10:47:35;11.00;99.90
74513;DHT22;62992;52.052;8.550;2023-04-25T10:50:19;11.60;99.90
74513;DHT22;62992;52.052;8.550;2023-04-25T10:53:14;12.40;99.90
74513;DHT22;62992;52.052;8.550;2023-04-25T10:55:59;13.00;99.50
74513;DHT22;62992;52.052;8.550;2023-04-25T10:58:44;12.20;99.90
74513;DHT22;62992;52.052;8.550;2023-04-25T11:01:56;11.50;99.90
74513;DHT22;62992;52.052;8.550;2023-04-25T11:04:40;11.00;99.90
74513;DHT22;62992;52.052;8.550;2023-04-25T11:10:15;10.50;99.90
74513;DHT22;62992;52.052;8.550;2023-04-25T11:12:59;10.20;99.90
74513;DHT22;62992;52.052;8.550;2023-04-25T11:15:44;9.80;99.90
74513;DHT22;62992;52.052;8.550;2023-04-25T11:18:28;9.60;99.90
74513;DHT22;62992;52.052;8.550;2023-04-25T11:21:13;9.20;99.90
74513;DHT22;62992;52.052;8.550;2023-04-25T11:23:57;8.80;99.90
74513;DHT22;62992;52.052;8.550;2023-04-25T11:26:42;8.50;99.90
74513;DHT22;62992;52.052;8.550;2023-04-25T11:29:27;8.50;99.90
74513;DHT22;62992;52.052;8.550;2023-04-25T11:32:11;8.70;99.90
74513;DHT22;62992;52.052;8.550;2023-04-25T11:34:56;9.50;99.90
74513;DHT22;62992;52.052;8.550;2023-04-25T11:37:42;9.80;99.90
74513;DHT22;62992;52.052;8.550;2023-04-25T11:40:27;9.80;99.90
74513;DHT22;62992;52.052;8.550;2023-04-25T11:43:11;9.30;99.90
74513;DHT22;62992;52.052;8.550;2023-04-25T11:45:55;9.20;99.90
74513;DHT22;62992;52.052;8.550;2023-04-25T11:48:40;9.00;99.90
74513;DHT22;62992;52.052;8.550;2023-04-25T11:51:24;8.80;99.90
74513;DHT22;62992;52.052;8.550;2023-04-25T11:54:10;8.50;99.90
74513;DHT22;62992;52.052;8.550;2023-04-25T11:56:55;8.40;99.90
74513;DHT22;62992;52.052;8.550;2023-04-25T11:59:40;8.40;99.90
74513;DHT22;62992;52.052;8.550;2023-04-25T12:02:25;8.50;99.90
74513;DHT22;62992;52.052;8.550;2023-04-25T12:05:12;8.50;99.90
74513;DHT22;62992;52.052;8.550;2023-04-25T12:07:56;8.70;99.90
74513;DHT22;62992;52.052;8.550;2023-04-25T12:10:43;9.20;99.90
74513;DHT22;62992;52.052;8.550;2023-04-25T12:13:28;10.00;99.90
74513;DHT22;62992;52.052;8.550;2023-04-25T12:16:15;10.30;99.90
74513;DHT22;62992;52.052;8.550;2023-04-25T12:18:59;10.80;99.90
74513;DHT22;62992;52.052;8.550;2023-04-25T12:21:44;11.10;99.90
74513;DHT22;62992;52.052;8.550;2023-04-25T12:24:29;11.50;99.90
74513;DHT22;62992;52.052;8.550;2023-04-25T12:27:15;11.80;99.90
74513;DHT22;62992;52.052;8.550;2023-04-25T12:30:04;11.70;99.90
74513;DHT22;62992;52.052;8.550;2023-04-25T12:32:48;11.10;99.90
74513;DHT22;62992;52.052;8.550;2023-04-25T12:35:32;10.90;99.90
74513;DHT22;62992;52.052;8.550;2023-04-25T12:38:35;10.60;99.90
74513;DHT22;62992;52.052;8.550;2023-04-25T12:41:19;10.10;99.90
74513;DHT22;62992;52.052;8.550;2023-04-25T12:44:04;10.60;99.90
74513;DHT22;62992;52.052;8.550;2023-04-25T12:46:48;11.00;99.90
74513;DHT22;62992;52.052;8.550;2023-04-25T12:49:32;11.40;99.90
74513;DHT22;62992;52.052;8.550;2023-04-25T12:52:16;11.70;99.90
74513;DHT22;62992;52.052;8.550;2023-04-25T12:55:00;11.40;99.90
74513;DHT22;62992;52.052;8.550;2023-04-25T12:57:44;11.40;99.90
74513;DHT22;62992;52.052;8.550;2023-04-25T13:00:30;11.40;99.90
74513;DHT22;62992;52.052;8.550;2023-04-25T13:03:14;11.70;99.90
74513;DHT22;62992;52.052;8.550;2023-04-25T13:05:58;11.60;99.90
74513;DHT22;62992;52.052;8.550;2023-04-25T13:08:42;11.50;99.90
74513;DHT22;62992;52.052;8.550;2023-04-25T13:11:26;11.00;99.90
74513;DHT22;62992;52.052;8.550;2023-04-25T13:14:11;10.50;99.90
74513;DHT22;62992;52.052;8.550;2023-04-25T13:16:55;10.20;99.90
74513;DHT22;62992;52.052;8.550;2023-04-25T13:19:38;9.90;99.90
74513;DHT22;62992;52.052;8.550;2023-04-25T13:22:23;8.70;99.90
74513;DHT22;62992;52.052;8.550;2023-04-25T13:25:08;8.00;99.90
74513;DHT22;62992;52.052;8.550;2023-04-25T13:27:52;7.60;99.90
74513;DHT22;62992;52.052;8.550;2023-04-25T13:30:36;7.30;99.90
74513;DHT22;62992;52.052;8.550;2023-04-25T13:33:21;7.00;99.90
74513;DHT22;62992;52.052;8.550;2023-04-25T13:36:05;7.00;99.90
74513;DHT22;62992;52.052;8.550;2023-04-25T13:38:49;7.10;99.90
74513;DHT22;62992;52.052;8.550;2023-04-25T13:41:34;7.30;99.90
74513;DHT22;62992;52.052;8.550;2023-04-25T13:44:19;7.60;99.90
74513;DHT22;62992;52.052;8.550;2023-04-25T13:47:03;7.90;99.90
74513;DHT22;62992;52.052;8.550;2023-04-25T13:49:47;8.40;99.90
74513;DHT22;62992;52.052;8.550;2023-04-25T13:52:31;8.90;99.90
74513;DHT22;62992;52.052;8.550;2023-04-25T13:55:15;9.30;99.90
74513;DHT22;62992;52.052;8.550;2023-04-25T13:58:00;9.50;99.90
74513;DHT22;62992;52.052;8.550;2023-04-25T14:00:50;9.60;99.90
74513;DHT22;62992;52.052;8.550;2023-04-25T14:03:35;9.50;99.90
74513;DHT22;62992;52.052;8.550;2023-04-25T14:06:19;9.70;99.90
74513;DHT22;62992;52.052;8.550;2023-04-25T14:09:06;9.60;99.90
74513;DHT22;62992;52.052;8.550;2023-04-25T14:11:54;9.50;99.90
74513;DHT22;62992;52.052;8.550;2023-04-25T14:14:39;9.60;99.90
74513;DHT22;62992;52.052;8.550;2023-04-25T14:17:23;9.80;99.90
74513;DHT22;62992;52.052;8.550;2023-04-25T14:20:08;9.90;99.90
74513;DHT22;62992;52.052;8.550;2023-04-25T14:22:53;9.80;99.90
74513;DHT22;62992;52.052;8.550;2023-04-25T14:25:41;9.80;99.90
74513;DHT22;62992;52.052;8.550;2023-04-25T14:28:26;10.20;99.90
74513;DHT22;62992;52.052;8.550;2023-04-25T14:31:10;10.20;99.90
74513;DHT22;62992;52.052;8.550;2023-04-25T14:33:54;10.00;99.90
74513;DHT22;62992;52.052;8.550;2023-04-25T14:36:38;10.00;99.90
74513;DHT22;62992;52.052;8.550;2023-04-25T14:39:22;9.80;99.90
74513;DHT22;62992;52.052;8.550;2023-04-25T14:42:07;9.60;99.90
74513;DHT22;62992;52.052;8.550;2023-04-25T14:44:51;9.70;99.90
74513;DHT22;62992;52.052;8.550;2023-04-25T14:47:36;10.00;99.90
74513;DHT22;62992;52.052;8.550;2023-04-25T14:50:20;10.10;99.90
74513;DHT22;62992;52.052;8.550;2023-04-25T14:53:04;10.00;99.90
74513;DHT22;62992;52.052;8.550;2023-04-25T14:55:49;9.90;99.90
74513;DHT22;62992;52.052;8.550;2023-04-25T14:58:33;10.00;99.90
74513;DHT22;62992;52.052;8.550;2023-04-25T15:01:17;10.10;99.90
74513;DHT22;62992;52.052;8.550;2023-04-25T15:04:04;10.30;99.90
74513;DHT22;62992;52.052;8.550;2023-04-25T15:06:48;10.20;99.90
74513;DHT22;62992;52.052;8.550;2023-04-25T15:09:32;10.10;99.90
74513;DHT22;62992;52.052;8.550;2023-04-25T15:12:16;9.80;99.90
74513;DHT22;62992;52.052;8.550;2023-04-25T15:15:00;9.30;99.90
74513;DHT22;62992;52.052;8.550;2023-04-25T15:17:45;9.10;99.90
74513;DHT22;62992;52.052;8.550;2023-04-25T15:20:29;8.90;99.90
74513;DHT22;62992;52.052;8.550;2023-04-25T15:23:13;9.00;99.90
74513;DHT22;62992;52.052;8.550;2023-04-25T15:25:57;9.00;99.90
74513;DHT22;62992;52.052;8.550;2023-04-25T15:28:41;9.20;99.90
74513;DHT22;62992;52.052;8.550;2023-04-25T15:31:26;9.10;99.90
74513;DHT22;62992;52.052;8.550;2023-04-25T15:34:11;9.30;99.90
74513;DHT22;62992;52.052;8.550;2023-04-25T15:36:55;9.30;99.90
74513;DHT22;62992;52.052;8.550;2023-04-25T15:39:40;9.10;99.90
74513;DHT22;62992;52.052;8.550;2023-04-25T15:42:24;9.20;99.90
74513;DHT22;62992;52.052;8.550;2023-04-25T15:45:10;9.10;99.90
74513;DHT22;62992;52.052;8.550;2023-04-25T15:47:55;9.00;99.90
74513;DHT22;62992;52.052;8.550;2023-04-25T15:50:40;9.20;99.90
74513;DHT22;62992;52.052;8.550;2023-04-25T15:53:25;9.30;99.90
74513;DHT22;62992;52.052;8.550;2023-04-25T15:56:09;9.30;99.90
74513;DHT22;62992;52.052;8.550;2023-04-25T15:58:54;9.10;99.90
74513;DHT22;62992;52.052;8.550;2023-04-25T16:01:38;9.10;99.90
74513;DHT22;62992;52.052;8.550;2023-04-25T16:04:24;9.00;99.90
74513;DHT22;62992;52.052;8.550;2023-04-25T16:07:09;9.00;99.90
74513;DHT22;62992;52.052;8.550;2023-04-25T16:09:53;8.90;99.90
74513;DHT22;62992;52.052;8.550;2023-04-25T16:12:38;8.90;99.90
74513;DHT22;62992;52.052;8.550;2023-04-25T16:15:22;8.60;99.90
74513;DHT22;62992;52.052;8.550;2023-04-25T16:18:07;8.30;99.90
74513;DHT22;62992;52.052;8.550;2023-04-25T16:20:52;8.20;99.90
74513;DHT22;62992;52.052;8.550;2023-04-25T16:23:36;8.00;99.90
74513;DHT22;62992;52.052;8.550;2023-04-25T16:26:20;8.00;99.90
74513;DHT22;62992;52.052;8.550;2023-04-25T16:29:06;7.80;99.90
74513;DHT22;62992;52.052;8.550;2023-04-25T16:31:51;7.60;99.90
74513;DHT22;62992;52.052;8.550;2023-04-25T16:34:35;7.40;99.90
74513;DHT22;62992;52.052;8.550;2023-04-25T16:37:19;7.30;99.90
74513;DHT22;62992;52.052;8.550;2023-04-25T16:40:04;7.30;99.90
74513;DHT22;62992;52.052;8.550;2023-04-25T16:42:51;7.20;99.90
74513;DHT22;62992;52.052;8.550;2023-04-25T16:45:35;7.20;99.90
74513;DHT22;62992;52.052;8.550;2023-04-25T16:48:19;7.10;99.90
74513;DHT22;62992;52.052;8.550;2023-04-25T16:51:07;6.90;99.90
74513;DHT22;62992;52.052;8.550;2023-04-25T16:53:51;6.90;99.90
74513;DHT22;62992;52.052;8.550;2023-04-25T16:56:37;7.00;99.90
74513;DHT22;62992;52.052;8.550;2023-04-25T16:59:21;7.10;99.90
74513;DHT22;62992;52.052;8.550;2023-04-25T17:02:06;7.00;99.90
74513;DHT22;62992;52.052;8.550;2023-04-25T17:04:53;7.30;99.90
74513;DHT22;62992;52.052;8.550;2023-04-25T17:07:37;7.40;99.90
74513;DHT22;62992;52.052;8.550;2023-04-25T17:10:22;7.50;99.90
74513;DHT22;62992;52.052;8.550;2023-04-25T17:13:06;7.70;99.90
74513;DHT22;62992;52.052;8.550;2023-04-25T17:15:50;7.60;99.90
74513;DHT22;62992;52.052;8.550;2023-04-25T17:18:34;7.70;99.90
74513;DHT22;62992;52.052;8.550;2023-04-25T17:21:19;7.60;99.90
74513;DHT22;62992;52.052;8.550;2023-04-25T17:24:03;7.70;99.90
74513;DHT22;62992;52.052;8.550;2023-04-25T17:26:52;7.70;99.90
74513;DHT22;62992;52.052;8.550;2023-04-25T17:29:37;7.80;99.90
74513;DHT22;62992;52.052;8.550;2023-04-25T17:32:21;7.80;99.90
74513;DHT22;62992;52.052;8.550;2023-04-25T17:35:05;7.70;99.90
74513;DHT22;62992;52.052;8.550;2023-04-25T17:37:49;7.80;99.90
74513;DHT22;62992;52.052;8.550;2023-04-25T17:40:35;7.80;99.90